Campiña-No se requiere un especial cuidado respecto a la situación meteorológica.   -   No hay avisos

Informes METAR

 

LEZL - Sevilla, Spain
Distancia de la estación: ENE 8km
Actualización: 28/05/2020 03:00
Despejado
Despejado
 Viento de ENE
Viento: ENE 17 km/h
Temperatura: 21°C
Rocío: 10°C
Humedad: 50%
Barómetro: 1019 hPa
Resumen: Despejado
Visibilidad: mayor de 10 km
2020/05/28 01:00 LEZL 280100Z AUTO 06009KT CAVOK 21/10 Q1019
LEMO - Morón, Spain
Distancia de la estación: SE 43km
Actualización: 28/05/2020 03:00
Despejado
Despejado
 Viento de E
Viento: E 17 km/h
Temperatura: 21°C
Rocío: 9°C
Humedad: 46%
Barómetro: 1019 hPa
Resumen: Despejado
Visibilidad: mayor de 10 km
2020/05/28 01:00 LEMO 280100Z 08009KT CAVOK 21/09 Q1019 NOSIG
LEJR - Jeréz, Spain
Distancia de la estación: S 71km
Actualización: 28/05/2020 03:00
Despejado
Despejado
 Viento de ENE
Viento: ENE 13 km/h
Temperatura: 22°C
Rocío: 8°C
Humedad: 41%
Barómetro: 1018 hPa
Resumen: Despejado
Visibilidad: mayor de 10 km
2020/05/28 01:00 LEJR 280100Z AUTO 07007KT 050V110 CAVOK 22/08 Q1018
 
LERT - Rota, Spain
Distancia de la estación: SSO 89km
Actualización: 28/05/2020 03:00
Despejado
Despejado
 Viento de ENE
Viento: ENE 13 km/h
Temperatura: 20°C
Rocío: 10°C
Humedad: 53%
Barómetro: 1017 hPa
Nubes: Despejado
Visibilidad: 10 km
2020/05/28 01:00 LERT 280100Z AUTO 06007KT 030V100 9999 NCD 20/10 Q1017
LEMG - Málaga, Spain
Distancia de la estación: ESE 157km
Actualización: 28/05/2020 03:00
Despejado
Despejado
 Viento de variable
Viento: variable 2 km/h
Temperatura: 20°C
Rocío: 15°C
Humedad: 73%
Barómetro: 1021 hPa
Resumen: Despejado
Visibilidad: mayor de 10 km
2020/05/28 01:00 LEMG 280100Z VRB01KT CAVOK 20/15 Q1021 NOSIG
LEBA - Córdoba, Spain
Distancia de la estación: ENE 115km
Actualización: 28/05/2020 03:00
Despejado
Despejado
 Viento de SO
Viento: SO 6 km/h
Temperatura: 18°C
Rocío: 13°C
Humedad: 73%
Barómetro: 1020 hPa
Resumen: Despejado
Visibilidad: mayor de 10 km
2020/05/28 01:00 LEBA 280100Z AUTO 22003KT 190V290 CAVOK 18/13 Q1020
 
LEGR - Granada, Spain
Distancia de la estación: E 198km
Actualización: 28/05/2020 03:00
Despejado
Despejado
 Viento de variable
Viento: variable 2 km/h
Temperatura: 16°C
Rocío: 10°C
Humedad: 68%
Barómetro: 1022 hPa
Resumen: Despejado
Visibilidad: mayor de 10 km
2020/05/28 01:00 LEGR 280100Z AUTO VRB01KT CAVOK 16/10 Q1022
LEAM - Almería, Spain
Distancia de la estación: E 326km
Actualización: 28/05/2020 03:00
Despejado
Despejado
 Viento de N
Viento: N 11 km/h
Temperatura: 24°C
Rocío: 8°C
Humedad: 36%
Barómetro: 1020 hPa
Resumen: Despejado
Visibilidad: mayor de 10 km
2020/05/28 01:00 LEAM 280100Z AUTO 36006KT 250V060 CAVOK 24/08 Q1020
LEMD - Madrid/Barajas, Spain
Distancia de la estación: NNE 402km
Actualización: 28/05/2020 03:00
Despejado
Despejado
 Viento de S
Viento: S 7 km/h
Temperatura: 20°C
Rocío: 10°C
Humedad: 53%
Barómetro: 1025 hPa
Resumen: Despejado
Visibilidad: mayor de 10 km
2020/05/28 01:00 LEMD 280100Z 18004KT CAVOK 20/10 Q1025 NOSIG
 
LEVD - Valladolid, Spain
Distancia de la estación: N 492km
Actualización: 28/05/2020 03:00
Despejado
Despejado
 Viento de ESE
Viento: ESE 11 km/h
Temperatura: 14°C
Rocío: 11°C
Humedad: 82%
Barómetro: 1025 hPa
Resumen: Despejado
Visibilidad: mayor de 10 km
2020/05/28 01:00 LEVD 280100Z AUTO 11006KT CAVOK 14/11 Q1025
LEBL - Barcelona, Spain
Distancia de la estación: NE 816km
Actualización: 28/05/2020 03:00
Poco nuboso
Poco nuboso
 Viento de ENE
Viento: ENE 9 km/h
Temperatura: 20°C
Rocío: 17°C
Humedad: 83%
Barómetro: 1027 hPa
Nubes: Poco nuboso
Visibilidad: 10 km
Detalles de las nubes: Poco nuboso 366 m
2020/05/28 01:00 LEBL 280100Z 07005KT 9999 FEW012 20/17 Q1027 NOSIG
LEVC - Valencia, Spain
Distancia de la estación: ENE 535km
Actualización: 28/05/2020 03:00
Poco nuboso
Poco nuboso
 Viento de NNE
Viento: NNE 6 km/h
Temperatura: 20°C
Rocío: 18°C
Humedad: 88%
Barómetro: 1026 hPa
Nubes: Poco nuboso
Visibilidad: 10 km
Detalles de las nubes: Poco nuboso 610 m
2020/05/28 01:00 LEVC 280100Z 03003KT 9999 FEW020 20/18 Q1026 NOSIG